createdAt,value
2023-01-15T00:00:06.037Z,10.40
2023-01-15T00:02:35.309Z,10.50
2023-01-15T00:05:03.605Z,10.40
2023-01-15T00:07:32.036Z,10.50
2023-01-15T00:09:59.867Z,10.50
2023-01-15T00:12:27.787Z,10.50
2023-01-15T00:14:57.903Z,10.50
2023-01-15T00:17:25.808Z,10.50
2023-01-15T00:19:55.008Z,10.50
2023-01-15T00:22:22.812Z,10.40
2023-01-15T00:25:07.975Z,10.40
2023-01-15T00:27:44.176Z,10.40
2023-01-15T00:30:14.773Z,10.40
2023-01-15T00:32:43.693Z,10.40
2023-01-15T00:35:15.718Z,10.40
2023-01-15T00:37:43.721Z,10.40
2023-01-15T00:40:12.881Z,10.40
2023-01-15T00:42:40.738Z,10.40
2023-01-15T00:45:10.963Z,10.40
2023-01-15T00:47:39.550Z,10.40
2023-01-15T00:50:10.433Z,10.50
2023-01-15T00:52:40.299Z,10.40
2023-01-15T00:55:09.224Z,10.40
2023-01-15T05:00:37.384Z,7.70
2023-01-15T05:03:05.251Z,7.60
2023-01-15T05:05:34.031Z,7.60
2023-01-15T05:08:01.781Z,7.50
2023-01-15T05:10:29.695Z,7.40
2023-01-15T05:12:57.467Z,7.40
2023-01-15T05:15:25.478Z,7.40
2023-01-15T05:17:54.697Z,7.40
2023-01-15T05:20:22.481Z,7.40
2023-01-15T05:22:51.283Z,7.40
2023-01-15T05:25:19.032Z,7.30
2023-01-15T05:27:46.833Z,7.20
2023-01-15T05:30:15.342Z,7.20
2023-01-15T05:32:43.062Z,7.10
2023-01-15T05:35:12.449Z,7.00
2023-01-15T05:37:40.208Z,7.00
2023-01-15T05:40:09.623Z,7.00
2023-01-15T05:42:37.384Z,6.90
2023-01-15T05:45:05.713Z,6.90
2023-01-15T05:47:35.657Z,6.80
2023-01-15T05:50:03.522Z,6.80
2023-01-15T05:52:32.627Z,6.80
2023-01-15T05:55:00.597Z,6.80
2023-01-15T05:57:28.388Z,6.70
2023-01-15T05:59:56.507Z,6.70
2023-01-15T06:02:24.275Z,6.70
2023-01-15T06:04:52.075Z,6.70
2023-01-15T06:07:19.864Z,6.70
2023-01-15T06:09:48.949Z,6.70
2023-01-15T06:12:16.755Z,6.70
2023-01-15T06:14:44.499Z,6.60
2023-01-15T06:19:40.439Z,6.50
2023-01-15T06:22:10.250Z,6.60
2023-01-15T06:24:38.860Z,6.60
2023-01-15T06:27:07.965Z,6.60
2023-01-15T06:29:35.789Z,6.50
2023-01-15T06:32:03.538Z,6.60
2023-01-15T06:34:31.348Z,6.60
2023-01-15T06:36:59.113Z,6.70
2023-01-15T06:39:28.023Z,6.60
2023-01-15T06:42:13.250Z,6.60
2023-01-15T06:45:00.480Z,6.50
2023-01-15T06:47:28.311Z,6.40
2023-01-15T06:49:58.418Z,6.40
2023-01-15T06:52:28.132Z,6.40
2023-01-15T06:54:56.317Z,6.30
2023-01-15T06:57:24.127Z,6.30
2023-01-15T06:59:53.577Z,6.20
2023-01-15T07:02:22.243Z,6.20
2023-01-15T07:04:50.196Z,6.20
2023-01-15T07:07:19.197Z,6.10
2023-01-15T07:09:46.988Z,6.00
2023-01-15T07:12:14.793Z,6.00
2023-01-15T07:14:42.614Z,6.00
2023-01-15T07:17:11.930Z,6.00
2023-01-15T07:19:40.218Z,6.00
2023-01-15T07:22:08.829Z,6.10
2023-01-15T07:24:36.699Z,6.10
2023-01-15T07:27:04.890Z,6.00
2023-01-15T07:29:32.691Z,5.90
2023-01-15T07:32:00.546Z,6.00
2023-01-15T07:34:29.653Z,6.00
2023-01-15T07:36:57.411Z,6.00
2023-01-15T07:39:25.276Z,6.00
2023-01-15T07:42:10.320Z,6.00
2023-01-15T07:44:52.056Z,6.10
2023-01-15T07:47:39.880Z,6.00
2023-01-15T07:50:11.580Z,6.10
2023-01-15T07:52:39.360Z,6.00
2023-01-15T07:55:08.531Z,6.00
2023-01-15T07:57:37.334Z,6.00
2023-01-15T08:00:06.724Z,6.10
2023-01-15T08:02:34.531Z,6.10
2023-01-15T08:05:02.390Z,6.00
2023-01-15T08:07:31.509Z,6.10
2023-01-15T08:09:59.314Z,6.20
2023-01-15T08:15:16.977Z,6.30
2023-01-15T08:17:46.844Z,6.30
2023-01-15T08:20:16.055Z,6.30
2023-01-15T08:22:45.981Z,6.30
2023-01-15T08:25:17.709Z,6.20
2023-01-15T08:27:46.246Z,6.20
2023-01-15T08:30:15.959Z,6.10
2023-01-15T08:32:43.747Z,6.20
2023-01-15T08:35:13.000Z,6.20
2023-01-15T08:37:41.247Z,6.10
2023-01-15T08:40:12.410Z,6.20
2023-01-15T08:42:40.757Z,6.20
2023-01-15T08:45:09.796Z,6.20
2023-01-15T08:47:37.841Z,6.10
2023-01-15T08:50:07.533Z,6.10
2023-01-15T08:52:35.277Z,6.10
2023-01-15T08:55:03.094Z,6.10
2023-01-15T08:57:32.257Z,6.00
2023-01-15T08:59:59.996Z,6.00
2023-01-15T09:02:29.709Z,6.00
2023-01-15T09:04:57.657Z,6.00
2023-01-15T09:07:25.753Z,6.00
2023-01-15T09:09:54.170Z,6.00
2023-01-15T09:12:24.691Z,6.00
2023-01-15T09:14:55.898Z,6.00
2023-01-15T09:17:28.734Z,6.00
2023-01-15T09:19:56.544Z,6.00
2023-01-15T09:22:25.303Z,6.00
2023-01-15T09:24:53.119Z,5.90
2023-01-15T09:27:21.007Z,6.00
2023-01-15T09:29:48.800Z,6.00
2023-01-15T09:32:17.943Z,6.00
2023-01-15T09:34:45.749Z,6.10
2023-01-15T09:37:13.511Z,6.10
2023-01-15T09:39:41.429Z,6.10
2023-01-15T09:42:24.958Z,6.20
2023-01-15T09:45:25.501Z,6.20
2023-01-15T09:48:12.955Z,6.20
2023-01-15T09:50:50.192Z,6.10
2023-01-15T09:53:47.469Z,6.10
2023-01-15T09:56:22.170Z,6.10
2023-01-15T09:58:51.256Z,6.00
2023-01-15T10:01:25.343Z,6.10
2023-01-15T10:04:00.914Z,6.10
2023-01-15T10:06:33.734Z,6.10
2023-01-15T10:09:07.660Z,6.20
2023-01-15T10:12:00.981Z,6.20
2023-01-15T10:14:40.118Z,6.20
2023-01-15T10:17:19.506Z,6.30
2023-01-15T10:19:48.832Z,6.30
2023-01-15T10:22:24.993Z,6.30
2023-01-15T10:24:57.790Z,6.30
2023-01-15T10:27:28.607Z,6.30
2023-01-15T10:30:02.963Z,6.30
2023-01-15T10:32:48.102Z,6.30
2023-01-15T10:35:34.975Z,6.40
2023-01-15T10:38:12.788Z,6.40
2023-01-15T10:40:56.102Z,6.40
2023-01-15T10:43:29.247Z,6.50
2023-01-15T10:45:59.166Z,6.50
2023-01-15T10:48:32.396Z,6.60
2023-01-15T10:51:04.311Z,6.60
2023-01-15T10:53:40.027Z,6.50
2023-01-15T10:56:13.868Z,6.50
2023-01-15T10:58:47.810Z,6.50
2023-01-15T11:01:19.734Z,6.50
2023-01-15T11:03:47.896Z,6.40
2023-01-15T11:06:19.619Z,6.50
2023-01-15T11:09:09.715Z,6.50
2023-01-15T11:12:01.772Z,6.50
2023-01-15T11:17:15.630Z,6.60
2023-01-15T11:19:45.192Z,6.70
2023-01-15T11:22:17.117Z,6.70
2023-01-15T11:24:50.646Z,6.70
2023-01-15T11:27:21.990Z,6.70
2023-01-15T11:29:54.115Z,6.70
2023-01-15T11:32:29.196Z,6.60
2023-01-15T11:34:58.383Z,6.60
2023-01-15T11:37:28.583Z,6.60
2023-01-15T11:40:00.454Z,6.60
2023-01-15T11:42:45.567Z,6.60
2023-01-15T11:45:34.077Z,6.50
2023-01-15T11:48:19.594Z,6.50
2023-01-15T11:50:54.604Z,6.50
2023-01-15T11:53:26.432Z,6.50
2023-01-15T11:55:59.892Z,6.50
2023-01-15T11:58:29.056Z,6.40
2023-01-15T12:00:57.916Z,6.50
2023-01-15T12:03:28.774Z,6.50
2023-01-15T12:06:00.358Z,6.60
2023-01-15T12:08:44.380Z,6.50
2023-01-15T12:11:26.973Z,6.60
2023-01-15T12:14:10.545Z,6.60
2023-01-15T12:16:46.850Z,6.70
2023-01-15T12:19:22.596Z,6.70
2023-01-15T12:22:20.551Z,6.80
2023-01-15T12:25:18.393Z,6.90
2023-01-15T12:28:03.579Z,7.00
2023-01-15T12:30:40.578Z,7.00
2023-01-15T12:33:20.231Z,7.00
2023-01-15T12:35:56.903Z,7.10
2023-01-15T12:38:37.485Z,7.10
2023-01-15T12:41:11.606Z,7.00
2023-01-15T12:43:57.079Z,7.10
2023-01-15T12:46:29.487Z,7.10
2023-01-15T12:49:03.324Z,7.00
2023-01-15T12:51:36.735Z,7.10
2023-01-15T12:54:08.694Z,7.20
2023-01-15T12:56:51.862Z,7.20
2023-01-15T12:59:23.793Z,7.20
2023-01-15T13:01:58.565Z,7.40
2023-01-15T13:04:33.467Z,7.40
2023-01-15T13:07:07.144Z,7.40
2023-01-15T13:09:45.063Z,7.40
2023-01-15T13:12:18.093Z,7.50
2023-01-15T13:14:46.949Z,7.40
2023-01-15T13:17:24.469Z,7.40
2023-01-15T13:20:10.215Z,7.50
2023-01-15T13:22:48.638Z,7.60
2023-01-15T13:25:43.428Z,7.60
2023-01-15T13:28:26.499Z,7.50
2023-01-15T13:31:07.311Z,7.50
2023-01-15T13:33:40.656Z,7.50
2023-01-15T13:36:14.474Z,7.40
2023-01-15T13:38:45.590Z,7.40
2023-01-15T13:41:40.334Z,7.50
2023-01-15T13:44:17.900Z,7.60
2023-01-15T13:46:47.044Z,7.60
2023-01-15T13:49:22.063Z,7.60
2023-01-15T13:51:50.951Z,7.70
2023-01-15T13:54:22.540Z,7.80
2023-01-15T13:56:50.372Z,7.80
2023-01-15T13:59:40.836Z,7.90
2023-01-15T14:02:28.621Z,7.90
2023-01-15T14:04:57.143Z,8.00
2023-01-15T14:07:35.292Z,8.00
2023-01-15T14:10:10.956Z,8.00
2023-01-15T14:12:50.079Z,8.20
2023-01-15T14:15:29.196Z,8.20
2023-01-15T14:18:15.213Z,8.20
2023-01-15T14:21:00.458Z,8.30
2023-01-15T14:23:53.615Z,8.30
2023-01-15T14:26:32.088Z,8.30
2023-01-15T14:29:11.888Z,8.30
2023-01-15T14:31:50.645Z,8.30
2023-01-15T14:34:21.098Z,8.30
2023-01-15T14:36:57.316Z,8.30
2023-01-15T14:39:37.879Z,8.30
2023-01-15T14:42:29.196Z,8.30
2023-01-15T14:45:00.174Z,8.30
2023-01-15T14:47:36.672Z,8.30
2023-01-15T14:50:25.584Z,8.30
2023-01-15T14:52:55.525Z,8.30
2023-01-15T14:55:23.944Z,8.30
2023-01-15T14:57:59.181Z,8.30
2023-01-15T15:00:36.924Z,8.10
2023-01-15T15:03:17.255Z,8.10
2023-01-15T15:05:46.849Z,8.20
2023-01-15T15:08:16.828Z,8.20
2023-01-15T15:10:46.718Z,8.10
2023-01-15T15:13:20.525Z,8.10
2023-01-15T15:15:55.188Z,8.10
2023-01-15T15:18:32.260Z,8.10
2023-01-15T15:21:07.213Z,8.10
2023-01-15T15:23:40.869Z,8.10
2023-01-15T15:26:22.232Z,8.00
2023-01-15T15:29:01.031Z,8.10
2023-01-15T15:31:32.320Z,8.00
2023-01-15T15:34:01.888Z,7.80
2023-01-15T15:36:33.239Z,7.80
2023-01-15T15:39:04.130Z,7.90
2023-01-15T15:41:53.949Z,8.00
2023-01-15T15:44:50.039Z,8.00
2023-01-15T15:47:40.614Z,8.00
2023-01-15T15:50:20.293Z,8.00
2023-01-15T15:52:50.106Z,8.00
2023-01-15T15:55:18.779Z,7.90
2023-01-15T15:57:48.322Z,7.90
2023-01-15T16:00:20.490Z,7.90
2023-01-15T16:02:48.610Z,7.90
2023-01-15T16:05:25.621Z,7.90
2023-01-15T16:07:55.131Z,7.90
2023-01-15T16:10:30.322Z,7.90
2023-01-15T16:13:02.908Z,7.90
2023-01-15T16:15:33.972Z,7.90
2023-01-15T16:18:03.601Z,7.80
2023-01-15T16:20:34.107Z,7.90
2023-01-15T16:23:03.682Z,7.70
2023-01-15T16:25:35.642Z,7.60
2023-01-15T16:28:04.505Z,7.70
2023-01-15T16:30:33.828Z,7.70
2023-01-15T16:33:03.028Z,7.70
2023-01-15T16:35:35.823Z,7.70
2023-01-15T16:38:05.218Z,7.60
2023-01-15T16:40:35.549Z,7.60
2023-01-15T16:43:07.005Z,7.70
2023-01-15T16:48:25.276Z,7.50
2023-01-15T16:50:54.641Z,7.40
2023-01-15T16:53:39.977Z,7.30
2023-01-15T16:56:26.150Z,7.40
2023-01-15T17:01:38.161Z,6.60
2023-01-15T17:04:20.424Z,7.40
2023-01-15T17:06:58.544Z,7.30
2023-01-15T17:09:27.029Z,7.30
2023-01-15T17:11:56.403Z,7.20
2023-01-15T17:14:27.098Z,7.20
2023-01-15T17:17:16.791Z,7.20
2023-01-15T17:19:44.628Z,7.20
2023-01-15T17:22:17.562Z,7.20
2023-01-15T17:24:49.512Z,7.20
2023-01-15T17:27:17.477Z,7.20
2023-01-15T17:29:45.549Z,7.30
2023-01-15T17:32:16.551Z,7.10
2023-01-15T17:34:44.350Z,7.10
2023-01-15T17:37:13.693Z,7.10
2023-01-15T17:39:41.503Z,7.00
2023-01-15T17:42:16.028Z,7.00
2023-01-15T17:44:43.831Z,7.00
2023-01-15T17:47:12.384Z,7.00
2023-01-15T17:49:40.614Z,7.00
2023-01-15T17:52:13.567Z,7.00
2023-01-15T17:57:46.656Z,6.90
2023-01-15T18:00:33.276Z,6.80
2023-01-15T18:03:19.475Z,6.60
2023-01-15T18:05:48.426Z,6.60
2023-01-15T18:08:18.682Z,6.60
2023-01-15T18:10:47.935Z,6.60
2023-01-15T18:13:15.706Z,6.60
2023-01-15T18:15:43.630Z,6.70
2023-01-15T18:18:11.639Z,6.70
2023-01-15T18:20:39.472Z,6.70
2023-01-15T18:23:07.421Z,6.60
2023-01-15T18:25:35.307Z,6.60
2023-01-15T18:28:04.579Z,6.60
2023-01-15T18:30:32.729Z,6.60
2023-01-15T18:33:02.683Z,6.70
2023-01-15T18:35:30.670Z,6.80
2023-01-15T18:37:58.911Z,6.80
2023-01-15T18:40:29.785Z,6.70
2023-01-15T18:43:15.327Z,6.70
2023-01-15T18:46:06.094Z,6.70
2023-01-15T18:48:34.215Z,6.70
2023-01-15T18:51:08.230Z,6.70
2023-01-15T18:53:36.085Z,6.70
2023-01-15T18:56:04.591Z,6.80
2023-01-15T18:58:32.509Z,6.80
2023-01-15T19:01:07.529Z,6.90
2023-01-15T19:03:35.526Z,6.80
2023-01-15T19:06:08.518Z,6.80
2023-01-15T19:08:38.266Z,6.80
2023-01-15T19:11:12.223Z,6.80
2023-01-15T19:13:40.055Z,6.80
2023-01-15T19:16:27.200Z,6.80
2023-01-15T19:18:55.852Z,6.90
2023-01-15T19:21:24.746Z,6.80
2023-01-15T19:23:52.922Z,6.80
2023-01-15T19:26:20.737Z,6.80
2023-01-15T19:28:50.944Z,6.80
2023-01-15T19:31:39.282Z,6.80
2023-01-15T19:34:33.616Z,6.70
2023-01-15T19:36:58.864Z,6.70
2023-01-15T19:39:35.440Z,6.80
2023-01-15T19:42:23.165Z,6.70
2023-01-15T19:45:08.745Z,6.90
2023-01-15T19:47:57.077Z,6.90
2023-01-15T19:50:31.458Z,6.90
2023-01-15T19:52:59.331Z,6.90
2023-01-15T19:55:28.863Z,6.90
2023-01-15T19:57:59.174Z,7.00
2023-01-15T20:00:27.487Z,7.00
2023-01-15T20:02:57.070Z,7.00
2023-01-15T20:05:26.675Z,7.00
2023-01-15T20:07:54.592Z,7.00
2023-01-15T20:10:25.175Z,7.00
2023-01-15T20:13:10.907Z,7.00
2023-01-15T20:15:40.908Z,7.00
2023-01-15T20:18:10.059Z,7.00
2023-01-15T20:20:38.807Z,7.00
2023-01-15T20:23:07.085Z,7.00
2023-01-15T20:25:35.407Z,7.10
2023-01-15T20:28:04.565Z,7.00
2023-01-15T20:30:34.448Z,7.00
2023-01-15T20:33:02.237Z,7.00
2023-01-15T20:35:32.228Z,6.90
2023-01-15T20:38:00.201Z,6.90
2023-01-15T20:40:28.863Z,6.90
2023-01-15T20:43:14.445Z,6.80
2023-01-15T20:45:42.479Z,6.80
2023-01-15T20:48:27.811Z,6.70
2023-01-15T20:51:03.083Z,6.60
2023-01-15T20:53:34.376Z,6.60
2023-01-15T20:56:02.514Z,6.50
2023-01-15T20:58:30.558Z,6.50
2023-01-15T21:01:03.746Z,6.40
2023-01-15T21:03:31.824Z,6.40
2023-01-15T21:06:04.535Z,6.40
2023-01-15T21:08:33.480Z,6.40
2023-01-15T21:11:01.768Z,6.40
2023-01-15T21:13:30.934Z,6.40
2023-01-15T21:16:00.815Z,6.40
2023-01-15T21:20:58.017Z,6.50
2023-01-15T21:23:27.161Z,6.50
2023-01-15T21:26:00.584Z,6.40
2023-01-15T21:28:28.444Z,6.40
2023-01-15T21:30:56.270Z,6.40
2023-01-15T21:33:24.145Z,6.30
2023-01-15T21:35:51.944Z,6.30
2023-01-15T21:38:19.689Z,6.30
2023-01-15T21:40:48.926Z,6.30
2023-01-15T21:43:34.405Z,6.30
2023-01-15T21:46:04.007Z,6.20
2023-01-15T21:48:31.860Z,6.30
2023-01-15T21:50:59.792Z,6.40
2023-01-15T21:53:27.924Z,6.40
2023-01-15T21:55:57.054Z,6.40
2023-01-15T21:58:24.877Z,6.40
2023-01-15T22:00:52.673Z,6.50
2023-01-15T22:03:20.538Z,6.50
2023-01-15T22:05:48.394Z,6.50
2023-01-15T22:08:17.237Z,6.40
2023-01-15T22:10:45.043Z,6.50
2023-01-15T22:13:14.169Z,6.50
2023-01-15T22:15:41.921Z,6.50
2023-01-15T22:18:09.987Z,6.50
2023-01-15T22:20:37.805Z,6.50
2023-01-15T22:23:05.678Z,6.50
2023-01-15T22:25:33.551Z,6.50
2023-01-15T22:28:01.431Z,6.50
2023-01-15T22:30:30.613Z,6.50
2023-01-15T22:33:00.594Z,6.50
2023-01-15T22:35:28.360Z,6.60
2023-01-15T22:37:56.167Z,6.60
2023-01-15T22:40:24.005Z,6.50
2023-01-15T22:42:51.774Z,6.50
2023-01-15T22:45:20.752Z,6.50
2023-01-15T22:47:50.437Z,6.50
2023-01-15T22:52:46.604Z,6.50
2023-01-15T22:55:14.481Z,6.50
2023-01-15T22:57:42.270Z,6.50
2023-01-15T23:00:11.642Z,6.50
2023-01-15T23:03:04.950Z,6.50
2023-01-15T23:05:38.774Z,6.50
2023-01-15T23:08:07.103Z,6.50
2023-01-15T23:10:34.902Z,6.50
2023-01-15T23:13:02.654Z,6.50
2023-01-15T23:15:30.973Z,6.40
2023-01-15T23:17:58.767Z,6.40
2023-01-15T23:20:26.562Z,6.40
2023-01-15T23:22:55.716Z,6.40
2023-01-15T23:25:23.640Z,6.40
2023-01-15T23:27:51.477Z,6.40
2023-01-15T23:30:19.639Z,6.40
2023-01-15T23:32:47.665Z,6.40
2023-01-15T23:35:15.539Z,6.30
2023-01-15T23:37:43.323Z,6.30
2023-01-15T23:40:13.445Z,6.30
2023-01-15T23:42:58.940Z,6.30
2023-01-15T23:45:44.579Z,6.30
2023-01-15T23:48:12.587Z,6.30
2023-01-15T23:50:40.361Z,6.30
2023-01-15T23:53:08.221Z,6.20
2023-01-15T23:55:37.364Z,6.10
2023-01-15T23:58:05.207Z,6.10
